Time;durP1;ratioP1;P1;durP2;ratioP2;P2;SDS_P1;SDS_P2;PMS_P1;PMS_P2;Temp;Humidity;BMP_temperature;BMP_pressure;BME280_temperature;BME280_humidity;BME280_pressure;Samples;Min_cycle;Max_cycle;Signal;HPM_P1;HPM_P2
2023/08/10 00:02:03;;;;;;;3.90;2.13;;;;;;;;;;6210052;23;20020;-89
2023/08/10 00:04:45;;;;;;;4.25;2.40;;;;;;;;;;6191023;23;20104;-90
2023/08/10 00:07:41;;;;;;;7.60;2.50;;;;;;;;;;6208938;23;20150;-89
2023/08/10 00:10:36;;;;;;;;;;;;;;;;;;6288308;22;20030;-89
2023/08/10 00:13:17;;;;;;;7.10;2.83;;;;;;;;;;6291968;22;19915;-90
2023/08/10 00:16:01;;;;;;;6.05;2.70;;;;;;;;;;6290163;22;20031;-90
2023/08/10 00:18:54;;;;;;;;;;;;;;;;;;;;;
2023/08/10 00:25:14;;;;;;;6.78;2.50;;;;;;;;;;6289279;22;20020;-90
2023/08/10 00:28:08;;;;;;;6.00;2.20;;;;;;;;;;6147826;23;20024;-89
2023/08/10 00:31:14;;;;;;;13.75;3.28;;;;;;;;;;6194418;23;20057;-89
2023/08/10 00:33:57;;;;;;;12.27;3.28;;;;;;;;;;6190741;23;20029;-89
2023/08/10 00:37:19;;;;;;;8.23;2.97;;;;;;;;;;6130553;23;20065;-89
2023/08/10 00:40:23;;;;;;;5.40;2.95;;;;;;;;;;6203701;23;20102;-90
2023/08/10 00:43:27;;;;;;;7.43;3.17;;;;;;;;;;6157736;23;20029;-91
2023/08/10 00:46:52;;;;;;;6.40;3.28;;;;;;;;;;6211294;23;20023;-90
2023/08/10 00:49:33;;;;;;;9.25;3.40;;;;;;;;;;6094437;23;20006;-90
2023/08/10 00:52:26;;;;;;;9.57;2.67;;;;;;;;;;6091556;23;20032;-90
2023/08/10 00:55:22;;;;;;;8.30;3.17;;;;;;;;;;6088712;23;20035;-89
2023/08/10 00:58:12;;;;;;;8.75;3.40;;;;;;;;;;6030833;23;20023;-90
2023/08/10 01:04:15;;;;;;;5.43;3.17;;;;;;;;;;6048608;23;20118;-89
2023/08/10 01:07:24;;;;;;;;;;;;;;;;;;;;;
2023/08/10 01:14:18;;;;;;;4.22;2.53;;;;;;;;;;6105452;23;20015;-90
2023/08/10 01:20:11;;;;;;;7.47;3.60;;;;;;;;;;6108297;23;20034;-89
2023/08/10 01:26:35;;;;;;;7.80;3.10;;;;;;;;;;5954778;24;20031;-89
2023/08/10 01:29:23;;;;;;;19.75;3.63;;;;;;;;;;5882333;24;20026;-90
2023/08/10 01:32:00;;;;;;;;;;;;;;;;;;5882468;24;20037;-90
2023/08/10 01:34:40;;;;;;;6.25;3.50;;;;;;;;;;5976543;23;19905;-90
2023/08/10 01:37:15;;;;;;;7.10;3.78;;;;;;;;;;6082984;23;20058;-90
2023/08/10 01:40:28;;;;;;;11.25;3.90;;;;;;;;;;6108050;23;20026;-91
2023/08/10 01:43:06;;;;;;;5.82;3.75;;;;;;;;;;6085161;23;20030;-90
2023/08/10 01:46:27;;;;;;;10.93;3.40;;;;;;;;;;6108961;23;20041;-91
2023/08/10 01:49:53;;;;;;;10.10;3.72;;;;;;;;;;6090489;23;20062;-91
2023/08/10 01:52:43;;;;;;;6.50;3.83;;;;;;;;;;6108620;23;20048;-89
2023/08/10 02:05:34;;;;;;;13.82;4.05;;;;;;;;;;6107019;23;20022;-90
2023/08/10 02:08:41;;;;;;;11.02;4.38;;;;;;;;;;6174516;23;20036;-90
2023/08/10 02:11:43;;;;;;;6.82;4.05;;;;;;;;;;6052392;23;20035;-90
2023/08/10 02:20:57;;;;;;;11.38;4.40;;;;;;;;;;6265452;23;20028;-91
2023/08/10 02:30:43;;;;;;;10.88;4.63;;;;;;;;;;6261769;23;20040;-90
2023/08/10 02:33:24;;;;;;;14.73;4.80;;;;;;;;;;6139523;23;20022;-90
2023/08/10 02:36:11;;;;;;;11.43;4.88;;;;;;;;;;6118650;23;20069;-90
2023/08/10 02:39:32;;;;;;;9.85;5.10;;;;;;;;;;6083493;23;20026;-90
2023/08/10 02:42:29;;;;;;;8.00;4.30;;;;;;;;;;5993741;23;20032;-90
2023/08/10 02:45:16;;;;;;;9.65;4.82;;;;;;;;;;5989401;23;20038;-90
2023/08/10 02:48:12;;;;;;;13.77;5.28;;;;;;;;;;5972251;24;20035;-90
2023/08/10 02:51:07;;;;;;;;;;;;;;;;;;;;;
2023/08/10 02:53:55;;;;;;;9.25;5.03;;;;;;;;;;5983377;23;20047;-89
2023/08/10 02:56:44;;;;;;;11.55;5.05;;;;;;;;;;5970993;24;20028;-90
2023/08/10 02:59:35;;;;;;;15.50;5.90;;;;;;;;;;6079162;23;20556;-90
2023/08/10 03:02:38;;;;;;;21.20;6.80;;;;;;;;;;6065253;23;20261;-92
2023/08/10 03:08:26;;;;;;;14.60;6.53;;;;;;;;;;6063904;23;20026;-90
2023/08/10 03:14:33;;;;;;;14.00;7.70;;;;;;;;;;6168477;23;20025;-89
2023/08/10 03:17:42;;;;;;;17.02;7.25;;;;;;;;;;6238857;23;20024;-90
2023/08/10 03:20:16;;;;;;;13.63;7.45;;;;;;;;;;6238516;22;20031;-89
2023/08/10 03:22:48;;;;;;;12.23;7.65;;;;;;;;;;6275036;22;20039;-86
2023/08/10 03:29:10;;;;;;;12.23;6.88;;;;;;;;;;6297874;22;20027;-87
2023/08/10 21:23:55;;;;;;;4.38;2.03;;;;;;;;;;6257261;22;20075;-90
2023/08/10 21:26:42;;;;;;;12.32;1.60;;;;;;;;;;6257715;22;20112;-90
2023/08/10 21:32:47;;;;;;;5.85;1.40;;;;;;;;;;6254782;22;20024;-88
2023/08/10 21:35:58;;;;;;;3.05;1.10;;;;;;;;;;6261869;22;20016;-87
2023/08/10 21:39:14;;;;;;;7.25;1.50;;;;;;;;;;6248969;23;20024;-88
2023/08/10 21:42:01;;;;;;;3.78;1.20;;;;;;;;;;6244027;23;20031;-88
2023/08/10 21:44:56;;;;;;;3.40;1.23;;;;;;;;;;6256155;23;20028;-88
2023/08/10 21:47:55;;;;;;;3.47;1.05;;;;;;;;;;6257660;23;20015;-88
2023/08/10 21:50:45;;;;;;;2.03;1.02;;;;;;;;;;6252531;23;20038;-88
2023/08/10 21:53:37;;;;;;;1.67;1.20;;;;;;;;;;6226745;23;20099;-89
2023/08/10 22:06:12;;;;;;;2.63;1.13;;;;;;;;;;6185169;23;20332;-88
2023/08/10 22:09:20;;;;;;;3.78;1.27;;;;;;;;;;6205464;23;20032;-88
2023/08/10 22:12:11;;;;;;;4.57;1.45;;;;;;;;;;6260627;23;20014;-89
2023/08/10 22:15:15;;;;;;;;;;;;;;;;;;;;;
2023/08/10 22:18:03;;;;;;;5.22;1.30;;;;;;;;;;6249237;22;20047;-89
2023/08/10 22:24:31;;;;;;;2.10;1.30;;;;;;;;;;6180322;23;20026;-88
2023/08/10 22:27:36;;;;;;;3.33;1.23;;;;;;;;;;6058111;23;20095;-89
2023/08/10 22:33:47;;;;;;;2.80;1.13;;;;;;;;;;6097741;23;20178;-89
2023/08/10 22:36:30;;;;;;;4.43;1.40;;;;;;;;;;6083071;23;20075;-88
2023/08/10 22:39:18;;;;;;;2.75;1.02;;;;;;;;;;6229828;23;20104;-88
2023/08/10 22:42:06;;;;;;;2.58;1.58;;;;;;;;;;6225063;22;20239;-88
2023/08/10 22:44:47;;;;;;;4.47;1.00;;;;;;;;;;6225374;23;20013;-88
2023/08/10 22:47:44;;;;;;;5.13;1.40;;;;;;;;;;6226887;23;20141;-88
2023/08/10 22:50:34;;;;;;;6.30;1.23;;;;;;;;;;6212271;23;20049;-88
2023/08/10 22:54:12;;;;;;;3.95;1.42;;;;;;;;;;6224324;23;20048;-89
2023/08/10 22:57:10;;;;;;;4.95;1.55;;;;;;;;;;6163515;23;20208;-88
2023/08/10 23:03:22;;;;;;;4.28;1.10;;;;;;;;;;6164458;23;20013;-88
2023/08/10 23:06:36;;;;;;;4.07;1.05;;;;;;;;;;6136236;23;20045;-88
2023/08/10 23:09:41;;;;;;;2.47;1.17;;;;;;;;;;6157993;23;20156;-89
2023/08/10 23:12:14;;;;;;;5.57;1.52;;;;;;;;;;6165375;23;20108;-87
2023/08/10 23:18:23;;;;;;;3.85;1.35;;;;;;;;;;6255149;23;20068;-88
2023/08/10 23:30:11;;;;;;;3.33;1.40;;;;;;;;;;6288527;22;20040;-87
2023/08/10 23:36:29;;;;;;;10.43;1.73;;;;;;;;;;6110486;23;20036;-88
2023/08/10 23:42:28;;;;;;;3.72;1.23;;;;;;;;;;6142135;23;20486;-87
2023/08/10 23:45:31;;;;;;;10.10;1.65;;;;;;;;;;6138713;23;20006;-87
2023/08/10 23:48:28;;;;;;;;;;;;;;;;;;;;;
2023/08/10 23:51:22;;;;;;;;;;;;;;;;;;;;;
2023/08/10 23:54:43;;;;;;;3.67;1.73;;;;;;;;;;6187184;23;20086;-87
2023/08/10 23:57:35;;;;;;;9.45;1.40;;;;;;;;;;6116463;23;20053;-88
